Flight Track Log - Related Links

Times and Time Zones

All times are in EDT time to prevent confusion due to time zone crossing. See the N727NE flight status page for this flight to view local times or setup timezone preferences in your user account.

Time Position Orientation Groundspeed Altitude Reporting Facility
EDT Latitude Longitude Course Direction KTS MPH feet Rate Location/Type
Fri 02:08:34 PM 39.6742 -84.1656 28° Northeast 114 131 3,300  Level Indianapolis Center
Fri 02:10:11 PM 39.7156 -84.1375 28° Northeast 110 127 4,200 612 Climbing Indianapolis Center
Fri 02:11:01 PM 39.7408 -84.1175 31° Northeast 116 133 4,800 757 Climbing Indianapolis Center
Fri 02:12:02 PM 39.7675 -84.0992 28° Northeast 105 121 5,600 738 Climbing Indianapolis Center
Fri 02:13:03 PM 39.7939 -84.0811 28° Northeast 102 117 6,300 639 Climbing Indianapolis Center
Fri 02:14:04 PM 39.8206 -84.0628 28° Northeast 105 121 6,900 393 Climbing Indianapolis Center
Fri 02:15:05 PM 39.8494 -84.0419 29° Northeast 130 150 7,100 79 Climbing Indianapolis Center
Fri 02:15:20 PM 39.8547 -84.0378 31° Northeast 112 129 7,000 -78 Descending Indianapolis Center
Fri 02:16:22 PM 39.8897 -84.0158 26° Northeast 122 140 7,000 96 Level Indianapolis Center
Fri 02:17:25 PM 39.9267 -83.9922 26° Northeast 131 151 7,200  Climbing Indianapolis Center
Fri 02:18:25 PM 39.9567 -83.9711 28° Northeast 134 154 7,000 -49 Descending Indianapolis Center
Fri 02:19:27 PM 39.9931 -83.9464 27° Northeast 138 159 7,100 52 Climbing Indianapolis Center
Fri 02:20:21 PM 40.0242 -83.9231 30° Northeast 138 159 7,100  Level Indianapolis Center
Fri 02:21:22 PM 40.0572 -83.9000 28° Northeast 135 155 7,100  Level Indianapolis Center
Fri 02:22:29 PM 40.0947 -83.8750 27° Northeast 134 154 7,100 -55 Level Indianapolis Center
Fri 02:23:12 PM 40.1189 -83.8589 27° Northeast 136 157 7,000 -94 Descending Indianapolis Center
Fri 02:23:33 PM 40.1314 -83.8483 33° Northeast 135 155 7,000 72 Level Indianapolis Center
Fri 02:24:35 PM 40.1647 -83.8261 27° Northeast 134 154 7,100 48 Climbing Indianapolis Center
Fri 02:25:37 PM 40.1986 -83.8033 27° Northeast 135 155 7,100  Level Indianapolis Center
Fri 02:26:38 PM 40.2317 -83.7808 27° Northeast 134 154 7,100  Level Indianapolis Center
Fri 02:27:40 PM 40.2653 -83.7578 28° Northeast 134 154 7,100 -97 Level Indianapolis Center
Fri 02:28:42 PM 40.2986 -83.7333 29° Northeast 135 155 6,900 -48 Descending Indianapolis Center
Fri 02:29:44 PM 40.3314 -83.7100 28° Northeast 134 154 7,000 98 Climbing Indianapolis Center
Fri 02:30:45 PM 40.3647 -83.6878 27° Northeast 133 153 7,100  Climbing Indianapolis Center
Fri 02:31:47 PM 40.3989 -83.6642 28° Northeast 135 155 7,000 -48 Descending Indianapolis Center
Fri 02:32:49 PM 40.4333 -83.6406 28° Northeast 137 158 7,000 -48 Level Indianapolis Center
Fri 02:33:51 PM 40.4733 -83.6150 26° Northeast 136 157 6,900 -48 Descending Indianapolis Center
Fri 02:34:53 PM 40.5067 -83.5897 30° Northeast 136 157 6,900 49 Level Indianapolis Center
Fri 02:35:54 PM 40.5403 -83.5642 30° Northeast 137 158 7,000 98 Climbing Indianapolis Center
Fri 02:36:56 PM 40.5750 -83.5400 28° Northeast 139 160 7,100 48 Climbing Indianapolis Center
Fri 02:37:58 PM 40.6083 -83.5178 27° Northeast 136 157 7,100 48 Level Indianapolis Center
Fri 02:39:00 PM 40.6422 -83.4964 26° Northeast 135 155 7,200 48 Climbing Indianapolis Center
Fri 02:40:02 PM 40.6767 -83.4722 28° Northeast 136 157 7,200 -48 Level Indianapolis Center
Fri 02:41:04 PM 40.7119 -83.4508 25° Northeast 137 158 7,100 -48 Descending Indianapolis Center
Fri 02:42:06 PM 40.7508 -83.4239 28° Northeast 136 157 7,100  Level Indianapolis Center
Fri 02:43:08 PM 40.7839 -83.3978 31° Northeast 136 157 7,100  Level Indianapolis Center
Fri 02:44:10 PM 40.8181 -83.3744 27° Northeast 136 157 7,100 -48 Level Indianapolis Center
Fri 02:45:12 PM 40.8550 -83.3522 24° Northeast 140 161 7,000 -48 Descending Indianapolis Center
Fri 02:46:14 PM 40.8875 -83.3325 25° Northeast 136 157 7,000  Level Indianapolis Center
Fri 02:47:16 PM 40.9264 -83.3181 16° North 136 157 7,000  Level Indianapolis Center

Login

Don't have an account? Register now (free) for customized features, flight alerts, and more!